Sao Joao, Brazil
Current Conditions -  °F | °C
As of 4:00 PM on Saturday 25 Oct 2014 (Local Time) from SBCA Reporting Station
Scattered Clouds Scattered Clouds  
Wind Chill: 81°   Ceiling: Unl
Heat Index: 83°   Visibility: 6mi
Dew Point: 68°   Wind: 23mph
Humidity: 65%   Direction: 40°NE
Pressure: 29.94"   Gusts: NA
Location:  25.83°S, 52.73°W
Report Text: SBCA 251800Z 04020KT 9999 SCT020 FEW040TCU 27/20 Q1014
Loading
Personal Weather Stations






























Interactive Weather Map
Tropical Storm Tracking
New forecast layout! Learn more

10-Day Weather Forecast

Advertisements
Track Severe Weather on mobile